Time;durP1;ratioP1;P1;durP2;ratioP2;P2;SDS_P1;SDS_P2;PMS_P1;PMS_P2;Temp;Humidity;BMP_temperature;BMP_pressure;BME280_temperature;BME280_humidity;BME280_pressure;Samples;Min_cycle;Max_cycle;Signal;HPM_P1;HPM_P2
2023/11/02 00:01:44;;;;;;;1.48;0.35;;;;;;;7.71;100.00;99436.00;5011195;28;20405;-69
2023/11/02 00:04:10;;;;;;;1.95;0.30;;;;;;;7.78;100.00;99431.44;5012183;28;20026;-69
2023/11/02 00:06:37;;;;;;;2.13;0.75;;;;;;;7.86;100.00;99433.06;5028640;28;20057;-69
2023/11/02 00:09:34;;;;;;;1.02;0.40;;;;;;;7.72;100.00;99409.03;5015313;28;20038;-69
2023/11/02 00:12:03;;;;;;;0.50;0.30;;;;;;;7.83;100.00;99412.88;5015057;28;20580;-69
2023/11/02 00:14:34;;;;;;;0.65;0.40;;;;;;;7.58;100.00;99396.72;5015442;28;20080;-69
2023/11/02 00:17:00;;;;;;;0.98;0.50;;;;;;;7.54;100.00;99382.13;5015279;28;20018;-69
2023/11/02 00:19:30;;;;;;;1.63;0.40;;;;;;;7.82;100.00;99402.41;5014752;28;20033;-69
2023/11/02 00:21:58;;;;;;;1.33;0.40;;;;;;;7.90;100.00;99396.75;5014473;28;20492;-69
2023/11/02 00:24:24;;;;;;;1.33;0.45;;;;;;;8.07;100.00;99405.09;5014740;28;20026;-69
2023/11/02 00:26:50;;;;;;;1.30;0.40;;;;;;;8.12;100.00;99400.75;5013901;28;20029;-68
2023/11/02 00:29:15;;;;;;;0.50;0.40;;;;;;;8.28;100.00;99395.84;5013608;28;20041;-68
2023/11/02 00:31:40;;;;;;;1.27;0.50;;;;;;;8.11;100.00;99388.38;5029553;28;20088;-68
2023/11/02 00:34:07;;;;;;;0.50;0.40;;;;;;;8.29;100.00;99392.16;5013122;28;20061;-69
2023/11/02 00:36:33;;;;;;;1.67;0.50;;;;;;;8.43;100.00;99399.88;5014381;28;20108;-69
2023/11/02 00:38:58;;;;;;;0.40;0.40;;;;;;;8.38;100.00;99391.69;5029414;28;20129;-69
2023/11/02 00:41:24;;;;;;;1.58;0.57;;;;;;;8.26;100.00;99389.91;5014197;28;20030;-69
2023/11/02 00:43:49;;;;;;;1.58;0.73;;;;;;;8.55;100.00;99393.81;5014058;28;20109;-68
2023/11/02 00:46:15;;;;;;;1.77;0.70;;;;;;;8.49;100.00;99384.78;5029203;28;20080;-69
2023/11/02 00:48:40;;;;;;;1.60;0.93;;;;;;;8.61;100.00;99392.91;5012869;28;20481;-69
2023/11/02 00:51:26;;;;;;;1.17;0.70;;;;;;;8.59;100.00;99382.44;5014803;28;20033;-68
2023/11/02 00:54:05;;;;;;;3.85;0.93;;;;;;;8.62;100.00;99379.31;5014037;28;20653;-68
2023/11/02 00:56:35;;;;;;;2.05;0.80;;;;;;;8.68;100.00;99372.25;5014791;28;20037;-68
2023/11/02 00:59:03;;;;;;;3.40;0.90;;;;;;;8.71;100.00;99361.09;5014150;28;20109;-69
2023/11/02 01:01:29;;;;;;;4.65;1.20;;;;;;;8.54;100.00;99370.72;5029430;28;20054;-68
2023/11/02 01:04:04;;;;;;;2.75;1.00;;;;;;;8.39;100.00;99355.81;5029188;28;20056;-69
2023/11/02 01:06:31;;;;;;;2.60;1.08;;;;;;;8.62;100.00;99368.59;5013747;28;20084;-69
2023/11/02 01:09:33;;;;;;;3.53;1.33;;;;;;;8.81;100.00;99366.75;5014020;28;20385;-68
2023/11/02 01:11:59;;;;;;;5.50;1.42;;;;;;;8.87;100.00;99368.53;5013299;28;20049;-68
2023/11/02 01:14:47;;;;;;;4.20;1.70;;;;;;;8.96;100.00;99368.22;5028514;28;20061;-69
2023/11/02 01:17:18;;;;;;;4.03;2.30;;;;;;;9.05;100.00;99362.34;5028505;28;20485;-68
2023/11/02 01:20:05;;;;;;;3.65;2.50;;;;;;;8.99;100.00;99359.75;5027579;28;20113;-69
2023/11/02 01:22:39;;;;;;;4.38;2.20;;;;;;;8.93;100.00;99354.22;5028207;28;20066;-68
2023/11/02 01:25:11;;;;;;;8.57;2.80;;;;;;;8.97;100.00;99343.03;5013455;28;20109;-69
2023/11/02 01:27:37;;;;;;;4.68;2.22;;;;;;;9.08;100.00;99353.03;5013407;28;20026;-68
2023/11/02 01:30:09;;;;;;;4.00;2.33;;;;;;;8.82;100.00;99341.56;5028188;28;20529;-68
2023/11/02 01:32:35;;;;;;;7.68;2.50;;;;;;;8.93;100.00;99342.66;5013567;28;20088;-68
2023/11/02 01:35:07;;;;;;;7.65;2.60;;;;;;;8.98;100.00;99325.91;5028398;28;20030;-68
2023/11/02 01:37:33;;;;;;;6.13;2.40;;;;;;;9.15;100.00;99321.56;5012801;28;20037;-69
2023/11/02 01:40:34;;;;;;;5.80;2.53;;;;;;;9.10;100.00;99318.72;5013928;28;20030;-68
2023/11/02 01:43:03;;;;;;;7.38;2.92;;;;;;;8.87;100.00;99328.31;5028760;28;20025;-68
2023/11/02 01:45:35;;;;;;;5.57;2.63;;;;;;;8.99;100.00;99317.63;5013611;28;20397;-68
2023/11/02 01:48:16;;;;;;;6.63;3.13;;;;;;;9.21;100.00;99317.97;5013159;28;20819;-68
2023/11/02 01:50:59;;;;;;;6.72;3.70;;;;;;;9.14;100.00;99327.97;5012631;28;20057;-68
2023/11/02 01:53:34;;;;;;;9.27;4.10;;;;;;;9.05;100.00;99318.59;5028338;28;20550;-68
2023/11/02 01:56:08;;;;;;;8.25;3.67;;;;;;;9.08;100.00;99315.47;5028592;28;20033;-68
2023/11/02 01:58:39;;;;;;;9.15;3.30;;;;;;;9.20;100.00;99316.31;5012693;28;20038;-68
2023/11/02 02:01:37;;;;;;;10.38;3.45;;;;;;;9.18;100.00;99318.44;5028368;28;20473;-68
2023/11/02 02:04:23;;;;;;;10.63;4.00;;;;;;;9.27;100.00;99308.19;4992344;28;20100;-68
2023/11/02 02:07:10;;;;;;;7.93;4.22;;;;;;;9.12;100.00;99297.88;4992712;28;20536;-68
2023/11/02 02:09:42;;;;;;;12.18;4.45;;;;;;;9.28;100.00;99304.47;5008202;28;20086;-68
2023/11/02 02:12:21;;;;;;;8.60;4.28;;;;;;;9.35;100.00;99308.69;4993053;28;20049;-68
2023/11/02 02:15:06;;;;;;;9.18;4.53;;;;;;;9.44;100.00;99301.16;4992804;28;20036;-68
2023/11/02 02:17:54;;;;;;;11.23;4.65;;;;;;;9.22;100.00;99305.38;4992501;28;20092;-68
2023/11/02 02:20:25;;;;;;;13.23;5.18;;;;;;;9.44;100.00;99316.41;5007982;28;20652;-68
2023/11/02 02:23:11;;;;;;;13.27;5.22;;;;;;;9.47;100.00;99318.66;4992901;28;20022;-68
2023/11/02 02:26:25;;;;;;;12.32;6.13;;;;;;;9.37;100.00;99284.28;4996962;28;20026;-68
2023/11/02 02:29:23;;;;;;;11.30;6.10;;;;;;;9.51;100.00;99299.19;5001066;28;20385;-68
2023/11/02 02:31:55;;;;;;;14.48;6.35;;;;;;;9.50;100.00;99310.13;5008147;28;20052;-69
2023/11/02 02:34:39;;;;;;;10.18;5.90;;;;;;;9.56;100.00;99306.53;4992450;28;20501;-68
2023/11/02 02:37:32;;;;;;;12.50;6.07;;;;;;;9.74;100.00;99311.84;5007710;28;20038;-68
2023/11/02 02:40:06;;;;;;;12.43;6.50;;;;;;;9.62;100.00;99289.50;4992634;28;20485;-68
2023/11/02 02:42:36;;;;;;;17.67;7.13;;;;;;;9.64;100.00;99282.06;4993088;28;20038;-68
2023/11/02 02:45:09;;;;;;;14.23;7.07;;;;;;;9.86;100.00;99306.50;4992502;28;20030;-68
2023/11/02 02:48:12;;;;;;;15.32;7.10;;;;;;;9.76;100.00;99296.31;4993656;28;20549;-68
2023/11/02 02:50:38;;;;;;;13.52;7.40;;;;;;;9.78;100.00;99282.66;4998763;28;20042;-68
2023/11/02 02:53:08;;;;;;;15.68;8.02;;;;;;;9.88;100.00;99283.72;5011096;28;20085;-68
2023/11/02 02:55:35;;;;;;;12.07;7.32;;;;;;;9.73;100.00;99277.16;4994428;28;20030;-68
2023/11/02 02:58:04;;;;;;;12.55;7.22;;;;;;;9.66;100.00;99261.13;4992469;28;20037;-68
2023/11/02 03:00:32;;;;;;;12.73;7.43;;;;;;;9.91;100.00;99271.69;4991936;28;20080;-68
2023/11/02 03:03:01;;;;;;;17.35;7.93;;;;;;;9.76;100.00;99255.19;4991660;28;20090;-68
2023/11/02 03:05:31;;;;;;;14.88;8.20;;;;;;;9.99;100.00;99265.97;4991799;28;20061;-68
2023/11/02 03:08:01;;;;;;;13.23;7.93;;;;;;;9.95;100.00;99264.81;4991704;28;20392;-68
2023/11/02 03:10:28;;;;;;;11.48;6.80;;;;;;;9.88;100.00;99270.28;4991991;28;20034;-68
2023/11/02 03:12:56;;;;;;;13.57;7.25;;;;;;;9.96;100.00;99266.44;4991610;28;20437;-68
2023/11/02 03:15:28;;;;;;;13.00;7.30;;;;;;;9.84;100.00;99269.13;4992173;28;20394;-68
2023/11/02 03:18:10;;;;;;;18.65;9.10;;;;;;;9.89;100.00;99265.72;4991507;28;20034;-68
2023/11/02 03:20:35;;;;;;;17.17;7.97;;;;;;;9.79;100.00;99262.81;4991812;28;20057;-68
2023/11/02 03:23:22;;;;;;;17.17;7.75;;;;;;;9.84;100.00;99252.19;4991324;28;20027;-68
2023/11/02 03:26:09;;;;;;;11.55;6.25;;;;;;;9.76;100.00;99253.31;4992321;28;20092;-68
2023/11/02 03:28:59;;;;;;;17.42;8.70;;;;;;;9.78;100.00;99250.44;5015306;28;20030;-68
2023/11/02 03:31:53;;;;;;;14.45;8.05;;;;;;;10.08;100.00;99244.94;5006857;28;20052;-68
2023/11/02 03:34:52;;;;;;;14.55;8.27;;;;;;;10.16;100.00;99244.59;5008155;28;20034;-68
2023/11/02 03:37:35;;;;;;;12.63;8.18;;;;;;;10.24;100.00;99251.50;4993687;28;20026;-68
2023/11/02 03:40:26;;;;;;;18.25;8.05;;;;;;;10.09;100.00;99241.19;4992413;28;20061;-68
2023/11/02 03:43:05;;;;;;;16.60;7.90;;;;;;;10.09;100.00;99236.63;5006876;28;20018;-68
2023/11/02 03:45:46;;;;;;;13.15;8.48;;;;;;;10.08;100.00;99240.38;4991727;28;20113;-68
2023/11/02 03:48:42;;;;;;;13.38;7.88;;;;;;;10.18;100.00;99245.19;5006328;28;20493;-68
2023/11/02 03:51:22;;;;;;;20.02;8.85;;;;;;;10.22;100.00;99256.28;4991487;28;20129;-69
2023/11/02 03:54:19;;;;;;;15.93;8.35;;;;;;;10.21;100.00;99251.97;4991092;28;20034;-69
2023/11/02 03:57:03;;;;;;;22.75;8.98;;;;;;;10.24;100.00;99248.81;4990718;28;20023;-69
2023/11/02 04:00:09;;;;;;;11.77;7.40;;;;;;;10.31;100.00;99247.66;4991162;28;20034;-68
2023/11/02 04:02:45;;;;;;;15.15;8.60;;;;;;;10.07;100.00;99243.31;4991312;28;20028;-69
2023/11/02 04:05:19;;;;;;;19.75;8.80;;;;;;;10.28;100.00;99253.50;5006018;28;20022;-68
2023/11/02 04:08:02;;;;;;;16.70;9.13;;;;;;;10.43;100.00;99244.97;4990892;28;20026;-68
2023/11/02 04:10:29;;;;;;;16.48;8.80;;;;;;;10.39;100.00;99242.97;4991242;28;20100;-69
2023/11/02 04:13:03;;;;;;;18.23;9.68;;;;;;;10.41;100.00;99244.38;4990538;28;20030;-68
2023/11/02 04:15:29;;;;;;;15.40;9.13;;;;;;;10.52;100.00;99242.72;4991832;28;20496;-68
2023/11/02 04:17:54;;;;;;;16.90;9.20;;;;;;;10.28;100.00;99228.50;4991052;28;20034;-68
2023/11/02 04:20:20;;;;;;;16.60;8.00;;;;;;;10.24;100.00;99232.69;4991117;28;20513;-68
2023/11/02 04:22:45;;;;;;;15.82;8.93;;;;;;;10.28;100.00;99217.72;4991340;28;20044;-68
2023/11/02 04:25:11;;;;;;;21.75;10.13;;;;;;;10.40;100.00;99220.38;4991106;28;20118;-68
2023/11/02 04:27:37;;;;;;;18.75;9.85;;;;;;;10.37;100.00;99213.63;5005976;28;20042;-68
2023/11/02 04:30:03;;;;;;;23.50;9.65;;;;;;;10.24;100.00;99214.66;5006435;28;20034;-69
2023/11/02 04:32:28;;;;;;;15.52;8.35;;;;;;;10.31;100.00;99212.69;5005762;28;20030;-69
2023/11/02 04:34:56;;;;;;;17.85;9.70;;;;;;;10.33;100.00;99210.59;4990964;28;20133;-68
2023/11/02 04:37:21;;;;;;;15.63;9.02;;;;;;;10.09;100.00;99209.75;4991191;28;20026;-69
2023/11/02 04:39:47;;;;;;;16.73;8.40;;;;;;;10.40;100.00;99212.31;4990693;28;20553;-68
2023/11/02 04:42:16;;;;;;;18.85;10.05;;;;;;;10.41;100.00;99203.22;5007939;28;20565;-68
2023/11/02 04:44:42;;;;;;;18.10;10.02;;;;;;;10.39;100.00;99194.56;4990833;28;20634;-68
2023/11/02 04:47:08;;;;;;;27.13;10.18;;;;;;;10.25;100.00;99186.72;5005947;28;20409;-68
2023/11/02 04:49:36;;;;;;;17.60;8.77;;;;;;;10.29;100.00;99185.22;4989323;28;20058;-68
2023/11/02 04:52:04;;;;;;;15.48;8.63;;;;;;;10.10;100.00;99173.78;5005459;28;20030;-68
2023/11/02 04:54:31;;;;;;;19.42;10.05;;;;;;;9.97;100.00;99122.19;4991905;28;20022;-68
2023/11/02 04:56:57;;;;;;;17.35;9.80;;;;;;;10.50;100.00;99186.47;4993838;28;20509;-68
2023/11/02 04:59:23;;;;;;;13.95;9.02;;;;;;;10.35;100.00;99173.53;4994322;28;20034;-69
2023/11/02 05:01:49;;;;;;;18.42;9.90;;;;;;;10.23;100.00;99178.09;4994188;28;20035;-67
2023/11/02 05:04:15;;;;;;;18.02;10.32;;;;;;;10.18;100.00;99166.41;4992931;28;20077;-68
2023/11/02 05:06:41;;;;;;;18.17;10.15;;;;;;;10.21;100.00;99158.69;5009362;28;20490;-69
2023/11/02 05:09:06;;;;;;;18.35;9.32;;;;;;;10.28;100.00;99155.91;5009234;28;20030;-69
2023/11/02 05:11:32;;;;;;;22.83;9.95;;;;;;;10.40;100.00;99158.53;4994131;28;20030;-69
2023/11/02 05:13:57;;;;;;;18.30;9.48;;;;;;;10.38;100.00;99139.97;4993985;28;20038;-69
2023/11/02 05:16:24;;;;;;;18.63;9.80;;;;;;;10.53;100.00;99144.84;4994818;28;20026;-68
2023/11/02 05:18:49;;;;;;;16.17;10.05;;;;;;;10.56;100.00;99147.88;5009273;28;20081;-69
2023/11/02 05:21:15;;;;;;;20.20;10.30;;;;;;;10.58;100.00;99147.63;5009633;28;20112;-69
2023/11/02 05:23:40;;;;;;;18.83;10.38;;;;;;;10.67;100.00;99143.50;4993921;28;20099;-69
2023/11/02 05:26:06;;;;;;;18.02;9.77;;;;;;;10.51;100.00;99141.56;5009748;28;20397;-68
2023/11/02 05:28:31;;;;;;;23.02;10.05;;;;;;;10.63;100.00;99150.44;5014929;28;20030;-68
2023/11/02 05:31:00;;;;;;;24.50;11.23;;;;;;;10.82;100.00;99153.72;5013604;28;20136;-68
2023/11/02 05:33:26;;;;;;;23.25;10.85;;;;;;;10.90;100.00;99147.16;5012452;28;20034;-67
2023/11/02 05:35:51;;;;;;;19.42;10.50;;;;;;;10.81;100.00;99134.06;5013348;28;20040;-68
2023/11/02 05:38:18;;;;;;;21.63;9.75;;;;;;;10.87;100.00;99147.63;5028918;28;20026;-68
2023/11/02 05:40:43;;;;;;;18.30;10.48;;;;;;;10.60;100.00;99148.22;5013168;28;20504;-68
2023/11/02 05:43:09;;;;;;;18.75;10.25;;;;;;;10.56;100.00;99149.72;5012794;28;20022;-68
2023/11/02 05:45:34;;;;;;;21.02;10.38;;;;;;;10.85;100.00;99147.84;4979517;28;20473;-68
2023/11/02 05:48:00;;;;;;;17.90;10.93;;;;;;;10.88;100.00;99149.25;5011372;28;20677;-67
2023/11/02 05:50:26;;;;;;;16.65;10.15;;;;;;;10.78;100.00;99147.19;5011670;28;20060;-68
2023/11/02 05:52:52;;;;;;;20.92;9.95;;;;;;;11.05;100.00;99142.03;5012442;28;20061;-68
2023/11/02 05:55:17;;;;;;;18.08;10.35;;;;;;;11.18;100.00;99159.75;5012892;28;20417;-68
2023/11/02 05:57:43;;;;;;;20.15;10.60;;;;;;;11.02;100.00;99153.25;5012368;28;20044;-68
2023/11/02 06:00:10;;;;;;;16.50;9.30;;;;;;;10.87;100.00;99153.00;5013258;28;20030;-68
2023/11/02 06:02:37;;;;;;;19.38;10.23;;;;;;;11.04;100.00;99148.47;5012927;28;20047;-68
2023/11/02 06:05:04;;;;;;;16.02;9.82;;;;;;;11.04;100.00;99148.47;5028276;28;20144;-68
2023/11/02 06:07:30;;;;;;;13.90;10.38;;;;;;;11.01;100.00;99148.94;5012040;28;20022;-68
2023/11/02 06:09:56;;;;;;;16.60;10.40;;;;;;;11.03;100.00;99153.03;5012732;28;20040;-68
2023/11/02 06:12:23;;;;;;;16.33;10.30;;;;;;;10.88;100.00;99127.72;5013542;28;20492;-68
2023/11/02 06:14:49;;;;;;;21.08;10.63;;;;;;;10.85;100.00;99122.81;5018190;28;20041;-68
2023/11/02 06:17:14;;;;;;;17.30;9.80;;;;;;;10.87;100.00;99144.94;5031430;28;20029;-68
2023/11/02 06:19:40;;;;;;;19.35;9.82;;;;;;;11.10;100.00;99138.63;5035753;28;20014;-68
2023/11/02 06:22:05;;;;;;;17.50;9.50;;;;;;;11.15;100.00;99138.69;5021000;28;20065;-68
2023/11/02 06:24:30;;;;;;;20.45;9.98;;;;;;;11.18;100.00;99139.00;5011682;28;20026;-68
2023/11/02 06:26:56;;;;;;;16.02;9.55;;;;;;;11.24;100.00;99137.22;5011872;28;20030;-68
2023/11/02 06:29:21;;;;;;;16.17;9.13;;;;;;;11.20;100.00;99133.41;5011183;28;20041;-68
2023/11/02 06:31:47;;;;;;;16.50;9.50;;;;;;;11.15;100.00;99127.91;5012158;28;20045;-68
2023/11/02 06:34:13;;;;;;;18.73;9.32;;;;;;;11.37;100.00;99126.13;5010668;28;20038;-68
2023/11/02 06:36:39;;;;;;;18.23;10.02;;;;;;;11.17;100.00;99129.31;5012278;28;20038;-68
2023/11/02 06:39:05;;;;;;;15.85;8.90;;;;;;;11.03;100.00;99114.53;5011506;28;20041;-69
2023/11/02 06:41:30;;;;;;;15.90;9.43;;;;;;;11.30;100.00;99128.19;5010589;28;20037;-68
2023/11/02 06:43:56;;;;;;;15.73;9.45;;;;;;;11.33;100.00;99129.56;5011753;28;20117;-68
2023/11/02 06:46:21;;;;;;;16.52;9.07;;;;;;;11.41;100.00;99135.34;5026669;28;20095;-68
2023/11/02 06:48:47;;;;;;;15.27;8.77;;;;;;;11.04;100.00;99132.31;5011545;28;20029;-68
2023/11/02 06:51:13;;;;;;;15.07;9.30;;;;;;;11.29;100.00;99143.53;5011504;28;20034;-68
2023/11/02 06:53:38;;;;;;;23.52;9.13;;;;;;;11.43;100.00;99143.19;5010268;28;20075;-68
2023/11/02 06:56:05;;;;;;;14.25;8.82;;;;;;;11.39;100.00;99123.19;5011212;28;20045;-68
2023/11/02 06:58:31;;;;;;;15.60;9.13;;;;;;;11.41;100.00;99137.22;5012942;28;20109;-68
2023/11/02 07:00:56;;;;;;;14.68;9.32;;;;;;;11.55;100.00;99141.22;5021609;28;20057;-68
2023/11/02 07:03:22;;;;;;;17.17;10.02;;;;;;;11.55;100.00;99138.53;5027206;28;20024;-68
2023/11/02 07:05:47;;;;;;;19.17;9.98;;;;;;;11.52;100.00;99136.31;5012248;28;20565;-68
2023/11/02 07:08:13;;;;;;;16.65;10.18;;;;;;;11.52;100.00;99136.31;5011588;28;20061;-68
2023/11/02 07:10:38;;;;;;;13.60;8.88;;;;;;;11.45;100.00;99135.66;5012228;28;20026;-68
2023/11/02 07:13:04;;;;;;;12.77;9.10;;;;;;;11.67;100.00;99130.34;5010633;28;20152;-68
2023/11/02 07:15:29;;;;;;;14.30;9.63;;;;;;;11.72;100.00;99133.09;5010621;28;20065;-69
2023/11/02 07:17:55;;;;;;;19.67;10.38;;;;;;;11.45;100.00;99088.00;5010033;28;20029;-68
2023/11/02 07:20:20;;;;;;;15.82;9.05;;;;;;;11.38;100.00;99129.63;5028972;28;20034;-69
2023/11/02 07:22:46;;;;;;;18.48;9.32;;;;;;;11.39;100.00;99132.09;5028154;28;20029;-68
2023/11/02 07:25:11;;;;;;;13.98;9.10;;;;;;;11.56;100.00;99107.84;5028177;28;20028;-69
2023/11/02 07:27:37;;;;;;;15.45;8.90;;;;;;;11.61;100.00;99125.94;5012978;28;20043;-67
2023/11/02 07:30:03;;;;;;;17.63;10.20;;;;;;;11.67;100.00;99106.91;5009899;28;20033;-67
2023/11/02 07:32:28;;;;;;;14.60;9.45;;;;;;;11.64;100.00;99120.06;5010098;28;20034;-67
2023/11/02 07:34:54;;;;;;;17.58;9.90;;;;;;;11.63;100.00;99107.66;5010862;28;20033;-68
2023/11/02 07:37:19;;;;;;;17.45;10.13;;;;;;;11.84;100.00;99119.53;5010894;28;20030;-69
2023/11/02 07:39:46;;;;;;;14.02;9.30;;;;;;;11.58;100.00;99116.47;5010512;28;20041;-68
2023/11/02 07:42:11;;;;;;;14.90;9.43;;;;;;;11.80;100.00;99108.44;5008340;28;20088;-68
2023/11/02 07:44:37;;;;;;;16.23;9.07;;;;;;;11.83;100.00;99107.13;5009634;28;20642;-68
2023/11/02 07:47:03;;;;;;;17.48;9.25;;;;;;;11.86;100.00;99106.69;5025112;28;20034;-70
2023/11/02 07:49:28;;;;;;;14.65;9.18;;;;;;;11.81;100.00;99103.88;5009658;28;20129;-70
2023/11/02 07:51:54;;;;;;;16.25;9.65;;;;;;;11.67;100.00;99082.66;5008547;28;20147;-69
2023/11/02 07:54:19;;;;;;;13.00;9.02;;;;;;;11.87;100.00;99111.00;5009615;28;20038;-69
2023/11/02 07:56:45;;;;;;;18.65;9.98;;;;;;;11.82;100.00;99094.72;5009935;28;20698;-71
2023/11/02 07:59:11;;;;;;;17.63;10.23;;;;;;;11.94;100.00;99100.84;5011480;28;20036;-71
2023/11/02 08:01:38;;;;;;;16.08;10.30;;;;;;;12.09;100.00;99094.84;5009830;28;20021;-69
2023/11/02 08:04:03;;;;;;;16.17;9.65;;;;;;;12.02;100.00;99094.19;5010202;28;20658;-68
2023/11/02 08:06:30;;;;;;;13.13;8.98;;;;;;;11.90;100.00;99075.47;5009642;28;20029;-69
2023/11/02 08:08:55;;;;;;;16.98;9.77;;;;;;;12.02;100.00;99084.25;5009785;28;20738;-69
2023/11/02 08:11:21;;;;;;;15.52;9.32;;;;;;;12.13;100.00;99082.50;5009833;28;20030;-71
2023/11/02 08:13:46;;;;;;;17.90;9.82;;;;;;;12.14;100.00;99082.22;5010704;28;20030;-70
2023/11/02 08:16:12;;;;;;;15.30;9.65;;;;;;;12.14;100.00;99086.81;5009662;28;20026;-69
2023/11/02 08:18:37;;;;;;;15.50;9.60;;;;;;;12.17;100.00;99081.72;5010644;28;20037;-70
2023/11/02 08:21:07;;;;;;;13.45;8.75;;;;;;;12.03;100.00;99074.28;5009217;28;20737;-69
2023/11/02 08:23:33;;;;;;;15.82;9.75;;;;;;;11.88;100.00;99080.28;5025906;28;20026;-69
2023/11/02 08:25:59;;;;;;;12.45;9.00;;;;;;;12.01;100.00;99079.09;5010850;28;20496;-69
2023/11/02 08:28:24;;;;;;;15.43;8.95;;;;;;;12.13;100.00;99087.88;5021750;28;20036;-70
2023/11/02 08:30:50;;;;;;;14.48;9.48;;;;;;;12.17;100.00;99084.41;5032233;28;20030;-70
2023/11/02 08:33:15;;;;;;;14.57;9.05;;;;;;;12.23;100.00;99080.72;5038611;28;20042;-70
2023/11/02 08:35:41;;;;;;;14.90;8.90;;;;;;;12.05;100.00;99074.81;5013513;28;20501;-70
2023/11/02 08:38:06;;;;;;;17.88;9.30;;;;;;;12.18;100.00;99079.84;5014148;28;20022;-70
2023/11/02 08:40:31;;;;;;;20.83;8.93;;;;;;;12.15;100.00;99064.16;5014395;28;20511;-70
2023/11/02 08:42:57;;;;;;;14.95;8.95;;;;;;;12.11;100.00;99066.53;5014324;28;20148;-72
2023/11/02 08:45:22;;;;;;;12.25;8.65;;;;;;;12.23;100.00;99071.81;5014746;28;20388;-70
2023/11/02 08:47:48;;;;;;;13.13;9.10;;;;;;;12.33;100.00;99071.13;5014654;28;20037;-70
2023/11/02 08:50:13;;;;;;;13.63;8.73;;;;;;;12.23;100.00;99074.50;5014300;28;20195;-70
2023/11/02 08:52:40;;;;;;;14.23;8.38;;;;;;;12.42;100.00;99069.59;5014661;28;20469;-70
2023/11/02 08:55:06;;;;;;;14.75;8.88;;;;;;;12.51;100.00;99067.25;5014385;28;20029;-71
2023/11/02 08:57:35;;;;;;;14.77;8.68;;;;;;;12.55;100.00;99055.72;5014408;28;20058;-71
2023/11/02 09:00:01;;;;;;;14.73;8.80;;;;;;;12.44;100.00;99051.25;5014838;28;20034;-71
2023/11/02 09:02:27;;;;;;;15.43;8.70;;;;;;;12.45;100.00;99039.44;5029464;28;20029;-71
2023/11/02 09:04:52;;;;;;;15.73;8.45;;;;;;;12.51;100.00;99048.38;5014333;28;20051;-71
2023/11/02 09:07:19;;;;;;;12.85;8.35;;;;;;;12.58;100.00;99035.47;5014050;28;20033;-71
2023/11/02 09:09:44;;;;;;;13.07;8.80;;;;;;;12.34;100.00;99032.28;5014034;28;20030;-71
2023/11/02 09:12:10;;;;;;;12.80;9.10;;;;;;;12.50;100.00;99041.34;5014390;28;20575;-71
2023/11/02 09:14:36;;;;;;;15.30;8.48;;;;;;;12.34;100.00;99049.28;5013675;28;20037;-71
2023/11/02 09:17:01;;;;;;;15.32;9.15;;;;;;;12.33;100.00;99038.75;5014097;28;20109;-72
2023/11/02 09:19:26;;;;;;;16.20;9.20;;;;;;;12.38;100.00;99017.22;5013937;28;20030;-71
2023/11/02 09:21:52;;;;;;;14.25;8.60;;;;;;;12.60;100.00;99036.06;5013599;28;20080;-71
2023/11/02 09:24:18;;;;;;;15.02;8.15;;;;;;;12.78;100.00;99026.75;5014189;28;20068;-71
2023/11/02 09:26:44;;;;;;;14.23;8.40;;;;;;;12.83;100.00;99024.91;5012404;28;20129;-70
2023/11/02 09:29:09;;;;;;;13.27;8.90;;;;;;;12.50;100.00;99012.47;5012516;28;20029;-72
2023/11/02 09:31:35;;;;;;;11.88;8.48;;;;;;;12.65;100.00;99015.34;4996357;28;20057;-71
2023/11/02 09:34:01;;;;;;;13.65;8.80;;;;;;;12.45;100.00;98993.56;5012148;28;20041;-71
2023/11/02 09:36:27;;;;;;;14.43;8.70;;;;;;;12.50;100.00;98992.78;5029338;28;20041;-71
2023/11/02 09:38:56;;;;;;;13.02;8.63;;;;;;;12.51;100.00;99016.81;5012223;28;20104;-72
2023/11/02 09:41:22;;;;;;;15.20;8.30;;;;;;;12.62;100.00;99010.44;5012174;28;20076;-71
2023/11/02 09:43:48;;;;;;;12.77;8.60;;;;;;;12.76;100.00;99007.31;5011686;28;20026;-72
2023/11/02 09:46:14;;;;;;;13.35;8.02;;;;;;;12.74;100.00;99004.88;5013622;28;20439;-71
2023/11/02 09:48:41;;;;;;;9.70;8.18;;;;;;;12.82;100.00;99006.28;5028625;28;20030;-72
2023/11/02 09:51:07;;;;;;;12.15;7.72;;;;;;;12.65;100.00;98985.66;4996500;28;20041;-71
2023/11/02 09:53:32;;;;;;;10.95;7.22;;;;;;;13.05;100.00;99007.81;5012489;28;20516;-71
2023/11/02 09:55:58;;;;;;;11.02;7.47;;;;;;;13.08;100.00;99005.41;5012938;28;20045;-70
2023/11/02 09:58:24;;;;;;;10.85;7.53;;;;;;;13.16;100.00;98996.81;5027944;28;20506;-71
2023/11/02 10:00:50;;;;;;;10.25;7.25;;;;;;;13.28;100.00;99009.34;5010904;28;20635;-71
2023/11/02 10:03:17;;;;;;;11.38;7.07;;;;;;;13.25;100.00;98999.06;5011469;28;20025;-71
2023/11/02 10:05:51;;;;;;;11.43;7.03;;;;;;;13.05;100.00;98995.13;5011834;28;20038;-71
2023/11/02 10:08:17;;;;;;;10.07;7.00;;;;;;;13.23;100.00;98972.28;4996203;28;20040;-71
2023/11/02 10:10:42;;;;;;;11.30;6.75;;;;;;;13.26;100.00;98984.50;5013067;28;20033;-72
2023/11/02 10:13:08;;;;;;;8.68;6.57;;;;;;;13.31;100.00;98981.78;5011662;28;20104;-71
2023/11/02 10:15:34;;;;;;;9.27;6.65;;;;;;;13.32;100.00;98988.84;5013014;28;20031;-71
2023/11/02 10:17:59;;;;;;;8.63;6.60;;;;;;;13.38;100.00;98987.81;5011477;28;20515;-70
2023/11/02 10:20:26;;;;;;;11.10;6.32;;;;;;;13.39;100.00;98992.94;5011156;28;20030;-71
2023/11/02 10:23:14;;;;;;;8.05;5.93;;;;;;;13.36;100.00;98984.53;5011101;28;20105;-72
2023/11/02 10:25:40;;;;;;;12.88;6.70;;;;;;;13.32;100.00;98981.56;5031651;28;20412;-72
2023/11/02 10:28:06;;;;;;;11.30;6.55;;;;;;;13.35;100.00;98985.63;5031837;28;20029;-71
2023/11/02 10:30:31;;;;;;;8.32;5.63;;;;;;;13.48;100.00;98976.25;5048299;28;20057;-71
2023/11/02 10:33:05;;;;;;;8.93;5.68;;;;;;;13.45;100.00;98987.56;5040104;28;20045;-71
2023/11/02 10:35:30;;;;;;;6.80;5.67;;;;;;;13.31;100.00;98973.69;5032468;28;20033;-72
2023/11/02 10:37:58;;;;;;;8.27;5.45;;;;;;;13.20;100.00;98963.88;5033121;28;20489;-72
2023/11/02 10:40:24;;;;;;;7.68;5.53;;;;;;;13.18;100.00;98964.16;5028960;28;20037;-71
2023/11/02 10:42:55;;;;;;;6.95;5.03;;;;;;;13.25;100.00;98936.94;5006378;28;20563;-71
2023/11/02 10:45:22;;;;;;;7.47;5.35;;;;;;;13.34;100.00;98952.41;5011774;28;20084;-72
2023/11/02 10:47:48;;;;;;;7.90;5.40;;;;;;;13.46;100.00;98937.84;5034236;28;20698;-71
2023/11/02 10:50:18;;;;;;;10.35;6.35;;;;;;;13.52;100.00;98943.00;5021051;28;20061;-71
2023/11/02 10:52:53;;;;;;;8.00;5.63;;;;;;;13.54;100.00;98921.97;5014874;28;20018;-72
2023/11/02 10:55:28;;;;;;;6.53;4.65;;;;;;;13.16;100.00;98898.78;5011929;28;20041;-72
2023/11/02 10:57:54;;;;;;;8.07;5.15;;;;;;;13.07;100.00;98906.56;5027577;28;20033;-72
2023/11/02 11:00:22;;;;;;;6.88;5.20;;;;;;;13.16;100.00;98898.78;5010883;28;20049;-72
2023/11/02 11:02:50;;;;;;;6.78;4.88;;;;;;;13.34;100.00;98902.94;5011714;28;20037;-72
2023/11/02 11:05:17;;;;;;;7.35;5.15;;;;;;;13.55;100.00;98904.66;5012423;28;20095;-71
2023/11/02 11:07:44;;;;;;;5.15;4.65;;;;;;;13.61;100.00;98902.78;5011873;28;20049;-71
2023/11/02 11:10:13;;;;;;;7.10;4.80;;;;;;;13.68;100.00;98914.16;5010462;28;20739;-70
2023/11/02 11:12:40;;;;;;;6.25;4.63;;;;;;;13.54;100.00;98911.16;5028339;28;20022;-72
2023/11/02 11:15:12;;;;;;;6.13;4.75;;;;;;;13.45;100.00;98912.72;5024088;28;20113;-71
2023/11/02 11:17:43;;;;;;;9.07;4.70;;;;;;;13.74;100.00;98904.16;5027411;28;20060;-71
2023/11/02 11:20:10;;;;;;;7.72;4.65;;;;;;;13.81;100.00;98921.78;5012286;28;20531;-72
2023/11/02 11:22:39;;;;;;;7.30;4.57;;;;;;;14.04;100.00;98931.28;5026198;28;20053;-71
2023/11/02 11:25:06;;;;;;;6.80;4.70;;;;;;;14.01;100.00;98925.59;5010778;28;20460;-71
2023/11/02 11:27:34;;;;;;;7.18;4.63;;;;;;;13.90;100.00;98932.84;5011746;28;20072;-71
2023/11/02 11:30:03;;;;;;;8.85;4.55;;;;;;;14.08;100.00;98926.97;5026528;28;20029;-71
2023/11/02 11:32:33;;;;;;;5.78;3.88;;;;;;;14.31;100.00;98933.75;5026620;28;20378;-71
2023/11/02 11:35:02;;;;;;;6.05;4.50;;;;;;;14.32;100.00;98921.03;5026407;28;20022;-71